Challenge Famenne Ardenne

Le Jogging De La Saint-Patrick à Nadrin (12.01 km)

dimanche 18 mars 2018

Le classement original se trouve sur : https://sites.google.com/view/chronofirst/
CHALLENGE FAMENNE ARDENNE
LE JOGGING DE LA SAINT-PATRICK - NADRIN
DISTANCE : 12.01 km
dimanche 18 mars 2018
 
Place NOM Catég. pl/Cat. Temps Temps/km Vitesse
1 Jonathan XHARDEZ S 1 00:45:20 03:46 15.90
2 Pierre GRANDJEAN V1 1 00:46:11 03:51 15.61
3 Michel MATHOT V1 2 00:47:02 03:55 15.33
4 Gilles LEONARD S 2 00:48:03 04:00 15.00
5 Anthony DEVILLET S 3 00:48:04 04:00 15.00
6 Renaud LEQUEUX S 4 00:49:37 04:08 14.53
7 Maxime LAMBERT S 5 00:50:19 04:11 14.33
8 Vincent DEMOULIN V1 3 00:50:19 04:11 14.33
9 Jérôme LAFFINEUR S 6 00:50:43 04:13 14.21
10 Manu VERHULST V1 4 00:50:48 04:14 14.19
11 Séverine PEKEL A1 1 00:52:05 04:20 13.84
12 Bernard JOUAN V2 1 00:52:24 04:22 13.76
13 Anthony SERON S 7 00:52:32 04:22 13.72
14 Christian HEYDEN V2 2 00:52:46 04:24 13.66
15 Youri DENIE S 8 00:52:59 04:25 13.60
16 Tommy BARTHOLOMÉ V1 5 00:53:17 04:26 13.53
17 Lionel FORGEUR S 9 00:53:19 04:26 13.52
18 Joanick VINCENT S 10 00:53:24 04:27 13.50
19 Geoffrey Mc GEARY V2 3 00:53:42 04:28 13.42
20 Gauvin GODISSART EH 1 00:53:57 04:29 13.36
21 Thierry REMACLE V2 4 00:54:09 04:30 13.31
22 Jean JACOB V1 6 00:54:22 04:32 13.26
23 Damien MARTHOZ V1 7 00:54:31 04:32 13.22
24 Hassn HAOUCHINE V1 8 00:54:58 04:35 13.11
25 David HUET S 11 00:55:28 04:37 13.00
26 Francis BODART V3 1 00:55:35 04:38 12.97
27 Bernard PIERRE V2 5 00:55:49 04:39 12.91
28 Martin GREGOIRE S 12 00:56:01 04:40 12.87
29 Julien LAHAYE S 13 00:56:08 04:40 12.84
30 Baudouin STEVENS V2 6 00:56:30 04:42 12.76
31 Charly BORSUS V2 7 00:56:35 04:43 12.74
32 Alain LOUVIAUX S 14 00:57:02 04:45 12.64
33 Julien TYCHON S 15 00:57:05 04:45 12.63
34 Fabrice ZUNE V1 9 00:57:07 04:45 12.62
35 John POSKIN S 16 00:57:13 04:46 12.60
36 Tommy POSKIN EH 2 00:57:17 04:46 12.58
37 Charles SON V2 8 00:57:34 04:48 12.52
38 Eloïse ROLAND D 1 00:58:19 04:51 12.36
39 Yves BOKKEN V1 10 00:58:22 04:52 12.35
40 Frédéric PEETERS S 17 00:58:37 04:53 12.30
41 Thomas REMACLE S 18 00:58:46 04:54 12.27
42 Jonathan LALLEMANT S 19 00:58:58 04:55 12.22
43 Jean-Marc REUL V2 9 00:59:03 04:55 12.21
44 Vincent DEJET V2 10 00:59:17 04:56 12.16
45 Cédric LISSOIR S 20 00:59:29 04:57 12.12
46 Grégory POUGIN S 21 00:59:34 04:58 12.10
47 André COLLOT V3 2 00:59:49 04:59 12.05
48 Benjamin BAUWERAERTS S 22 00:59:50 04:59 12.05
49 Cédric SARLET S 23 00:59:57 04:59 12.02
50 Kathleen SON D 2 01:00:16 05:01 11.96
51 Nicolas SCHLOUNE S 24 01:00:17 05:01 11.96
52 Louise WENKIN D 3 01:00:21 05:01 11.94
53 Paulin BALAND S 25 01:00:23 05:02 11.94
54 Cindy CROUQUET A1 2 01:00:28 05:02 11.92
55 Simon MAROT S 26 01:00:39 05:03 11.88
56 Katleen LIEVENS A1 3 01:00:41 05:03 11.88
57 Justine PONCIN S 27 01:01:07 05:05 11.79
58 Jean-Marie DAOUST V3 3 01:01:17 05:06 11.76
59 Maxime RENARD S 28 01:01:22 05:06 11.75
60 Thibaud GOBERT S 29 01:02:00 05:10 11.63
61 Eric DEMEUSE V2 11 01:02:06 05:10 11.61
62 Greg CNAEPKENS S 30 01:02:07 05:10 11.60
63 Thierry SARLET V1 11 01:02:14 05:11 11.58
64 Jean-Michel PREVOT S 31 01:02:16 05:11 11.58
65 Nico DE MARCHI V2 12 01:02:22 05:11 11.56
66 Fredy GANHY V2 13 01:02:28 05:12 11.54
67 Bertrand WAVREILLE S 32 01:02:34 05:12 11.52
68 Guido WIJNGAARDEN V1 12 01:02:36 05:13 11.51
69 Denis LOCKMA N S 33 01:02:45 05:13 11.49
70 Lindsay DAOUST A1 4 01:02:55 05:14 11.46
71 Jonathan BASTOGNE S 34 01:02:59 05:15 11.44
72 Grégory LOCKMAN S 35 01:03:06 05:15 11.42
73 Patrice FARNIR V1 13 01:03:15 05:16 11.40
74 Grégory GASPART S 36 01:03:22 05:16 11.38
75 Yves DOMBIER V1 14 01:03:31 05:17 11.35
76 Alyson LECLERC D 4 01:03:32 05:17 11.35
77 Nicolas DEWEZ S 37 01:03:34 05:17 11.34
78 Luc TRIFFAUX V2 14 01:03:44 05:18 11.31
79 Eric RENARD V2 15 01:04:00 05:20 11.26
80 Camille DEVAHIVE V2 16 01:04:02 05:20 11.26
81 Dominique HYWE V1 15 01:04:17 05:21 11.21
82 Peter MEERT V1 16 01:04:24 05:22 11.19
83 Nathalie MAURIN A2 1 01:04:34 05:22 11.16
84 Olivier OGER V1 17 01:05:27 05:27 11.01
85 Delphine ELLEBOUDT A1 5 01:06:11 05:31 10.89
86 Dirk PIETERS V2 17 01:06:12 05:31 10.89
87 Gaëtan GODEFROID V2 18 01:06:41 05:33 10.81
88 Pierre LAMETTE V2 19 01:07:19 05:36 10.71
89 Julie LEONARD A1 6 01:07:32 05:37 10.67
90 Stéphane VANHALLE S 38 01:08:03 05:40 10.59
91 Michel DE BRESSING V3 4 01:08:13 05:41 10.57
92 Sarah GLESNER D 5 01:08:43 05:43 10.49
93 Geoffrey LEONARD S 39 01:08:54 05:44 10.46
94 Marie-Cécile BURNOTTE A3 1 01:09:19 05:46 10.40
95 Jean-Luc BERNES V2 20 01:09:42 05:48 10.34
96 Didier HUET V1 18 01:09:48 05:49 10.33
97 Joëlle PETIT A3 2 01:10:15 05:51 10.26
98 Pierre CLERX S 40 01:11:04 05:55 10.14
99 Justine PONETTE D 6 01:11:20 05:56 10.10
100 Bernard SEVRIN V3 5 01:11:21 05:56 10.10
101 Charlotte DE BRESSING D 7 01:11:54 05:59 10.03
102 Julien LEONARD S 41 01:12:43 06:03 9.91
103 Hélène DAVID A1 7 01:13:16 06:06 9.84
104 Daniel GRUSLIN V1 19 01:13:18 06:06 9.83
105 Sandrina HAAN A2 2 01:13:21 06:06 9.83
106 Marianne VANDER ELST A3 3 01:13:27 06:07 9.81
107 Joëlle HAAN A2 3 01:13:28 06:07 9.81
108 Isabelle BISSOT A1 8 01:13:49 06:09 9.76
109 Patrick LAFFINEUR V1 20 01:13:59 06:10 9.74
110 Bernadette DROPSY A2 4 01:15:09 06:15 9.59
111 Edmond PETIT V4 1 01:15:10 06:15 9.59
112 Alain PREVITALI V1 21 01:15:18 06:16 9.57
113 Bénédicte GOFFIN A2 5 01:16:11 06:20 9.46
114 Cécile DUBOIS A2 6 01:16:21 06:21 9.44
115 Marc PONSARD V2 21 01:16:21 06:21 9.44
116 Vincent ROUFIGNON V1 22 01:17:21 06:26 9.32
117 Jean-Marie LESENFANTS V2 22 01:17:22 06:26 9.32
118 Leslie BOSENDORF D 8 01:18:07 06:30 9.23
119 Pauline BERNARD D 9 01:18:17 06:31 9.21
120 Vinciane LEBOUTTE A2 7 01:19:10 06:35 9.10
121 Sylviane TASSIGNY A2 8 01:19:10 06:35 9.10
122 Carine COLAS A2 9 01:21:03 06:45 8.89
123 Cécile DAWAGNE A1 9 01:21:22 06:46 8.86
124 Laurence BASTIN A2 10 01:23:44 06:58 8.61
125 Bernadette MARTIN A2 11 01:23:46 06:58 8.60
126 Alain BODART V2 23 01:23:54 06:59 8.59
127 Marie-Christine DEMOULIN A3 4 01:27:34 07:17 8.23
128 Vincent PEFFER V2 24 01:27:37 07:18 8.23
             
Nos dernières videos